Aviation Digital Data Service (ADDS)

Output produced by METARs form (0101 UTC 24 May 2022)
found at http://www.aviationweather.gov/metar/data/
 
TAF HADR 231530Z 2318/2424 15008KT 9999 SCT025 SCT090
       
HAAB 240100Z 27006KT 9999 FEW025 14/04 Q1023 NO SIG
TAF HAAB 231530Z 2318/2424 36005KT 9999 FEW025 SCT090 
     BECMG 2404/2406 HZ SCT025 SCT025